Terminal Aerodrome Forecast
Issued by NWS Quad Cities IA IL

Home | Current Version | Previous Version | Text Only | Print | Product List | Glossary On
Versions: 1 2 3 4 5 6 7 8 9 10 11 12 13 14 15 16 17 18 19 20 21
000
FTUS43 KDVN 282104 AAA
TAFMLI
TAF AMD
KMLI 282104Z 2821/2918 20018G26KT P6SM SCT030 BKN100
      TEMPO 2821/2822 VRB20G35KT 2SM TSRA BR BKN035CB
     FM282300 23013G20KT P6SM SCT020 BKN035
     FM290200 24010KT P6SM SCT200=

USA.gov is the U.S. government's official web portal to all federal, state and local government web resources and services.